Current Conditions
Mostly Cloudy
Conditions



Pressure
1011.92 (hPa) - 29.88 (inHG)
Visibility

1.9 (mimiles) - 3.0 (km)
   Temperature
9  °C
48°F
9  °C
Dewpoint
100  %
 Humidity
   Wind Speed
22  mph
19  kts
35  km/h
9.8  m/s
   Wind Direction
 230°
South West
   Airport Data
EGTK
Location Oxford (Kidlington) 26 mi (41.83 km)
Metar :EGTK 220650Z 23019KT 3000 DZ RA BKN007 OVC009 09/09 Q1012
Sat 22nd February 06:50 am
   Raw Metar Info
Raw METAR is the most common format in the world for the transmission of observational weather data. It is highly standardized through the International Civil Aviation Organization (ICAO), which allows it to be understood throughout most of the world.
   API Info
Data Provided by
https://www.checkwx.com/weather/EGTK
   © Info
CSS/SVG/PHP scripts were developed by weather34.com for use in the weather34 template © 2015-2020

Guide Info provided by Metar-Wikipedia